sensor_id;sensor_type;location;lat;lon;timestamp;P1;durP1;ratioP1;P2;durP2;ratioP2
56477;SDS011;42382;53.210;5.772;2022-12-20T07:34:36;7.45;;;5.05;;
56477;SDS011;42382;53.210;5.772;2022-12-20T07:37:02;9.25;;;4.15;;
56477;SDS011;42382;53.210;5.772;2022-12-20T07:39:28;6.88;;;4.25;;
56477;SDS011;42382;53.210;5.772;2022-12-20T07:41:54;8.63;;;4.90;;
56477;SDS011;42382;53.210;5.772;2022-12-20T07:44:21;12.30;;;4.72;;
56477;SDS011;42382;53.210;5.772;2022-12-20T09:07:05;7.07;;;2.85;;
56477;SDS011;42382;53.210;5.772;2022-12-20T09:09:31;7.90;;;3.47;;
56477;SDS011;42382;53.210;5.772;2022-12-20T09:11:57;5.90;;;2.60;;
56477;SDS011;42382;53.210;5.772;2022-12-20T09:14:23;7.82;;;2.50;;
56477;SDS011;42382;53.210;5.772;2022-12-20T09:16:49;6.03;;;2.58;;
56477;SDS011;42382;53.210;5.772;2022-12-20T14:02:46;13.18;;;9.95;;
56477;SDS011;42382;53.210;5.772;2022-12-20T14:05:30;14.45;;;9.20;;
56477;SDS011;42382;53.210;5.772;2022-12-20T14:07:58;15.75;;;10.27;;
56477;SDS011;42382;53.210;5.772;2022-12-20T14:10:32;13.50;;;9.23;;
56477;SDS011;42382;53.210;5.772;2022-12-20T14:12:59;13.73;;;10.50;;
56477;SDS011;42382;53.210;5.772;2022-12-20T14:15:32;12.63;;;10.07;;
56477;SDS011;42382;53.210;5.772;2022-12-20T14:18:05;13.25;;;9.43;;
56477;SDS011;42382;53.210;5.772;2022-12-20T14:20:42;13.60;;;10.75;;
56477;SDS011;42382;53.210;5.772;2022-12-20T19:50:32;30.57;;;15.97;;
56477;SDS011;42382;53.210;5.772;2022-12-20T19:55:23;22.48;;;16.17;;
56477;SDS011;42382;53.210;5.772;2022-12-20T19:57:55;29.88;;;17.48;;
56477;SDS011;42382;53.210;5.772;2022-12-20T20:00:20;26.23;;;16.17;;
56477;SDS011;42382;53.210;5.772;2022-12-20T20:02:46;22.25;;;14.18;;
56477;SDS011;42382;53.210;5.772;2022-12-20T20:05:11;33.00;;;15.80;;
56477;SDS011;42382;53.210;5.772;2022-12-20T22:38:30;20.48;;;13.60;;
56477;SDS011;42382;53.210;5.772;2022-12-20T22:43:33;18.95;;;12.93;;
56477;SDS011;42382;53.210;5.772;2022-12-20T22:45:59;22.88;;;14.32;;
56477;SDS011;42382;53.210;5.772;2022-12-20T22:48:25;31.92;;;16.40;;
56477;SDS011;42382;53.210;5.772;2022-12-20T22:51:02;25.17;;;15.23;;
56477;SDS011;42382;53.210;5.772;2022-12-20T22:53:39;36.20;;;15.30;;
56477;SDS011;42382;53.210;5.772;2022-12-20T22:56:04;102.80;;;18.95;;
56477;SDS011;42382;53.210;5.772;2022-12-20T22:58:30;44.72;;;15.68;;
56477;SDS011;42382;53.210;5.772;2022-12-20T23:00:58;80.03;;;17.85;;
56477;SDS011;42382;53.210;5.772;2022-12-20T23:03:26;76.45;;;16.67;;
56477;SDS011;42382;53.210;5.772;2022-12-20T23:05:53;241.27;;;24.27;;
56477;SDS011;42382;53.210;5.772;2022-12-20T23:08:24;156.32;;;19.83;;
56477;SDS011;42382;53.210;5.772;2022-12-20T23:10:51;79.65;;;16.05;;
56477;SDS011;42382;53.210;5.772;2022-12-20T23:13:36;77.50;;;15.65;;
56477;SDS011;42382;53.210;5.772;2022-12-20T23:16:21;72.63;;;15.98;;
56477;SDS011;42382;53.210;5.772;2022-12-20T23:18:48;70.68;;;15.38;;
56477;SDS011;42382;53.210;5.772;2022-12-20T23:21:18;73.53;;;15.40;;
56477;SDS011;42382;53.210;5.772;2022-12-20T23:24:02;36.65;;;14.23;;
56477;SDS011;42382;53.210;5.772;2022-12-20T23:26:27;51.55;;;13.25;;
56477;SDS011;42382;53.210;5.772;2022-12-20T23:28:53;39.75;;;12.93;;
56477;SDS011;42382;53.210;5.772;2022-12-20T23:31:19;35.55;;;13.18;;
56477;SDS011;42382;53.210;5.772;2022-12-20T23:33:44;41.78;;;13.43;;
56477;SDS011;42382;53.210;5.772;2022-12-20T23:36:10;39.28;;;13.40;;
56477;SDS011;42382;53.210;5.772;2022-12-20T23:38:36;31.92;;;12.18;;
56477;SDS011;42382;53.210;5.772;2022-12-20T23:41:06;25.15;;;12.02;;
56477;SDS011;42382;53.210;5.772;2022-12-20T23:43:32;33.65;;;12.25;;
56477;SDS011;42382;53.210;5.772;2022-12-20T23:46:06;27.63;;;12.40;;
56477;SDS011;42382;53.210;5.772;2022-12-20T23:48:37;21.67;;;11.38;;
56477;SDS011;42382;53.210;5.772;2022-12-20T23:51:02;26.20;;;11.50;;
56477;SDS011;42382;53.210;5.772;2022-12-20T23:53:29;18.27;;;11.23;;
56477;SDS011;42382;53.210;5.772;2022-12-20T23:56:05;28.73;;;11.95;;
56477;SDS011;42382;53.210;5.772;2022-12-20T23:58:33;23.05;;;10.43;;
